Smithville, Pennsylvania
Current Conditions -  °F | °C
As of 1:53 PM on Tuesday 21 Oct 2014 (Local Time) from KLNS Reporting Station
Broken Clouds Broken Clouds  
Wind Chill: 62°   Ceiling: 5000
Heat Index: 62°   Visibility: 10mi
Dew Point: 49°   Wind: 7mph
Humidity: 62%   Direction: 340°NNW
Pressure: 29.83"   Gusts: NA
Location:  39.9111°N, 76.2285°W
Report Text: KLNS 211753Z 34006KT 10SM SCT036 BKN050 17/09 A2983 RMK AO2 SLP100 T01670094 10172 20089 58016
Loading
Personal Weather Stations






























Interactive Weather Map
Tropical Storm Tracking
New forecast layout! Learn more

10-Day Weather Forecast

Advertisements
Track Severe Weather on mobile